Sierra Nevada Aquatic Research Lab (SNARL) Reserve, California Weather observations

Data are for 10 minute period ending at time listed.
 Day   Time   Solar   Ave.   Ave.  Ave.  Vector  Max.   Baro.   Total    
  of    of     Rad.   Air    Rel.  Wind   Wind   Wind  Press.  Precip.   
Year   Day            Temp.  Hum.  Speed  Dir.   Gust                    
2017   (PST)  Kw/m2    F      %     mph   deg.    mph    mb.     in.     
-------------------------------------------------------------------------
 327   17:40   0.00   57.1    20    6.8   237    11.6   788.2    0.00 
 327   17:50   0.00   56.3    20    7.7   250    10.7   788.2    0.00 
 327   18:00   0.00   57.0    18    7.6   249    15.8   788.1    0.00 
 327   18:10   0.00   55.2    21    8.3   253    13.1   788.2    0.00 
 327   18:20   0.00   54.8    25    7.4   269    11.4   788.3    0.00 
 327   18:30   0.00   52.7    29    6.0   246     9.9   788.2    0.00 
 327   18:40   0.00   50.8    33    3.1   256     8.4   788.2    0.00 
 327   18:50   0.00   49.9    32    3.1   236    11.8   788.1    0.00 
 327   19:00   0.00   49.6    31    2.7   123     9.8   788.2    0.00 
 327   19:10   0.00   54.0    20    8.4   230    15.8   788.3    0.00 
 327   19:20   0.00   56.2    19    9.0   247    15.0   788.4    0.00 
 327   19:30   0.00   54.6    23    3.5   276     8.0   788.4    0.00 
 327   19:40   0.00   51.2    29    4.2   307    12.6   788.5    0.00 
 327   19:50   0.00   51.5    29    4.5   174    10.4   788.4    0.00 
 327   20:00   0.00   49.6    37    5.5    11    10.8   788.2    0.00 
 327   20:10   0.00   47.5    43    3.6    87     6.6   788.3    0.00 
 327   20:20   0.00   47.5    44    5.3    61     9.3   788.4    0.00 
 327   20:30   0.00   46.2    44    2.3   225     9.1   788.6    0.00 
 327   20:40   0.00   44.3    47    3.9   258     9.1   788.8    0.00 
 327   20:50   0.00   43.4    47    2.5   205     7.0   788.8    0.00 
 327   21:00   0.00   40.2    50    2.0   214     7.9   788.6    0.00 
 327   21:10   0.00   38.7    52    2.8   344     5.3   788.6    0.00 
 327   21:20   0.00   39.0    51    3.7   131     8.0   788.6    0.00 
 327   21:30   0.00   39.8    51    3.4   246     6.2   788.4    0.00 
 327   21:40   0.00   41.6    48    3.1   353     6.6   788.4    0.00 
 327   21:50   0.00   39.6    51    2.2   250     4.2   788.5    0.00 
 327   22:00   0.00   36.8    56    2.0   292     4.8   788.4    0.00 
 327   22:10   0.00   36.3    56    3.4   183     8.6   788.4    0.00 
 327   22:20   0.00   36.7    54    3.9   225     9.4   788.4    0.00 
 327   22:30   0.00   39.2    50    3.3   218     7.2   788.4    0.00 
 327   22:40   0.00   38.7    52    3.1   324     6.4   788.5    0.00 
 327   22:50   0.00   39.6    50    3.1   192     8.5   788.3    0.00 
 327   23:00   0.00   39.4    49    2.4   217     6.1   788.2    0.00 
 327   23:10   0.00   39.8    47    3.5   217     9.5   788.2    0.00 
 327   23:20   0.00   42.0    45    4.0   354     7.7   788.0    0.00 
 327   23:30   0.00   41.8    47    3.3   326     7.6   787.9    0.00 
 327   23:40   0.00   39.8    51    3.5   258     5.8   787.8    0.00 
 327   23:50   0.00   39.2    52    3.9    76     8.0   787.5    0.00 
 328    0:00   0.00   41.1    50    4.4   337    11.2   787.6    0.00 
 328    0:10   0.00   42.5    48    4.7   190     9.6   787.7    0.00 
 328    0:20   0.00   40.2    51    2.8   222     8.3   787.6    0.00 
 328    0:30   0.00   39.4    53    3.7   196     8.8   787.5    0.00 
 328    0:40   0.00   40.9    51    2.9    40     6.6   787.3    0.00 
 328    0:50   0.00   41.1    51    4.1    72    10.0   787.3    0.00 
 328    1:00   0.00   41.3    52    5.5    27     9.9   787.3    0.00 
 328    1:10   0.00   41.7    52    4.2    83     7.5   787.3    0.00 
 328    1:20   0.00   41.2    54    3.4     2     6.9   787.1    0.00 
 328    1:30   0.00   41.9    53    3.2     6     7.1   787.1    0.00 
 328    1:40   0.00   42.5    52    3.4   104     9.1   787.2    0.00 
 328    1:50   0.00   42.9    51    5.8    49    10.9   787.1    0.00 
 328    2:00   0.00   43.9    49    6.3    33     8.8   787.0    0.00 
 328    2:10   0.00   43.3    50    2.2    95     5.2   787.0    0.00 
 328    2:20   0.00   42.4    52    3.8    26     9.6   786.9    0.00 
 328    2:30   0.00   43.1    52    4.5    89    14.1   786.7    0.00 
 328    2:40   0.00   43.2    52    4.7    50     7.6   786.6    0.00 
 328    2:50   0.00   42.7    52    4.1   100     8.5   786.5    0.00 
 328    3:00   0.00   42.9    51    3.1    12     9.1   786.4    0.00 
 328    3:10   0.00   44.9    50    6.0   200    16.1   786.3    0.00 
 328    3:20   0.00   53.6    40    9.7   234    20.5   786.2    0.00 
 328    3:30   0.00   54.9    38    6.4   247    13.4   786.3    0.00 
 328    3:40   0.00   46.7    45    5.8    84    16.6   786.2    0.00 
 328    3:50   0.00   48.5    45    6.3   257    18.3   786.2    0.00 
 328    4:00   0.00   54.2    39   13.4   225    23.0   786.1    0.00 
 328    4:10   0.00   55.7    37   15.2   236    27.0   786.0    0.00 
 328    4:20   0.00   55.8    35   20.5   231    37.8   785.9    0.00 
 328    4:30   0.00   55.7    35   14.6   228    27.3   785.9    0.00 
 328    4:40   0.00   55.4    36   15.7   225    29.3   785.8    0.00 
 328    4:50   0.00   55.2    36   14.0   236    26.5   785.7    0.00 
 328    5:00   0.00   55.5    36   15.9   248    25.8   785.8    0.00 
 328    5:10   0.00   55.4    36   18.5   238    32.9   785.8    0.00 
 328    5:20   0.00   55.4    38   19.1   227    36.2   785.9    0.00 
 328    5:30   0.00   55.0    38   16.4   244    33.8   785.9    0.00 
 328    5:40   0.00   54.8    38   16.4   234    34.3   786.0    0.00 
 328    5:50   0.00   55.0    37   19.8   239    34.7   785.8    0.00 
 328    6:00   0.00   55.5    35   17.5   230    31.0   785.6    0.00 
 328    6:10   0.00   56.3    34   18.4   238    34.0   785.6    0.00 
 328    6:20   0.00   56.3    34   15.7   231    33.2   785.6    0.00 
 328    6:30   0.00   57.3    31   22.6   240    45.1   785.5    0.00 
 328    6:40   0.00   57.7    29   18.1   243    38.4   785.5    0.00 
 328    6:50   0.00   57.5    28   19.0   239    41.4   785.5    0.00 
 328    7:00   0.01   57.5    27   14.7   235    27.5   785.5    0.00 
 328    7:10   0.01   57.2    28   16.1   242    28.6   785.6    0.00 
 328    7:20   0.01   57.4    28   16.7   238    29.4   785.6    0.00 
 328    7:30   0.02   57.8    26   12.3   256    25.2   785.8    0.00 
 328    7:40   0.03   57.3    22   12.1   268    28.0   785.8    0.00 
 328    7:50   0.09   57.7    21    7.1   260    26.0   786.0    0.00 
 328    8:00   0.16   57.6    21   10.2   290    20.8   786.1    0.00 
 328    8:10   0.19   58.6    20    6.7   291    12.9   786.2    0.00 
 328    8:20   0.18   59.1    18    7.2   295    16.0   786.2    0.00 
 328    8:30   0.23   59.1    16    8.1   305    21.4   786.1    0.00 
 328    8:40   0.29   61.1    13    7.2   298    18.4   786.2    0.00 
 328    8:50   0.29   60.9    14    9.0   297    16.7   786.4    0.00 
 328    9:00   0.34   62.2    11    8.3   267    16.4   786.4    0.00 
 328    9:10   0.37   63.8     9    6.5   256    19.4   786.5    0.00 
 328    9:20   0.39   64.1     8    8.4   247    20.0   786.6    0.00 
 328    9:30   0.42   64.1     8    8.8   230    16.6   786.7    0.00 
 328    9:40   0.41   64.1     8   10.7   225    17.7   786.8    0.00 
 328    9:50   0.45   65.0     8   10.2   233    16.2   786.9    0.00 
 328   10:00   0.47   65.6     7    8.9   217    13.0   786.9    0.00 
 328   10:10   0.49   65.4     7   10.3   224    17.1   786.9    0.00 
 328   10:20   0.50   65.5     7    8.5   222    17.7   786.9    0.00 
 328   10:30   0.46   65.6     7   10.7   231    16.1   786.8    0.00 
 328   10:40   0.43   65.2     7   10.4   245    15.8   786.8    0.00 
 328   10:50   0.44   65.5     6    7.3   272    15.9   786.7    0.00 
 328   11:00   0.46   66.1     7    9.4   258    16.4   786.6    0.00 
 328   11:10   0.48   66.6     6    7.9   267    13.3   786.6    0.00 
 328   11:20   0.48   66.9     6    9.7   260    16.8   786.6    0.00 
 328   11:30   0.54   67.0     5   10.0   274    15.8   786.5    0.00 
 328   11:40   0.53   66.8     5   11.8   263    21.0   786.4    0.00 
 328   11:50   0.55   67.3     6    8.9   266    17.7   786.3    0.00 
 328   12:00   0.53   67.3     5    9.5   276    16.7   786.3    0.00 
 328   12:10   0.53   67.5     6    9.5   273    17.5   786.2    0.00 
 328   12:20   0.53   67.7     6   10.3   265    16.2   786.0    0.00 
 328   12:30   0.54   67.9     6   10.3   243    16.4   785.9    0.00 
 328   12:40   0.53   68.6     6    8.5   249    15.4   785.8    0.00 
 328   12:50   0.52   68.0     7    8.8   258    17.3   785.7    0.00 
 328   13:00   0.50   67.9     7    9.1   246    16.3   785.7    0.00 
 328   13:10   0.45   67.9     7    8.4   258    13.7   785.6    0.00 
 328   13:20   0.46   67.8     7    8.3   252    15.9   785.6    0.00 
 328   13:30   0.46   68.3     6   11.3   251    18.6   785.5    0.00 
 328   13:40   0.44   67.9     6   10.1   240    14.8   785.4    0.00 
 328   13:50   0.45   68.3     6    9.6   243    16.1   785.3    0.00 
 328   14:00   0.43   68.6     6   10.6   246    17.0   785.2    0.00 
 328   14:10   0.41   68.2     7    8.8   245    15.3   785.3    0.00 
 328   14:20   0.36   68.4     7   10.1   239    15.6   785.3    0.00 
 328   14:30   0.38   67.7     7    9.8   246    15.3   785.3    0.00 
 328   14:40   0.37   67.5     7    9.8   242    15.9   785.3    0.00 
 328   14:50   0.23   66.1     8   10.6   252    16.3   785.4    0.00 
 328   15:00   0.26   65.3     9    9.8   258    16.7   785.5    0.00 
 328   15:10   0.23   65.4    10   10.0   264    13.7   785.4    0.00 
 328   15:20   0.18   64.3    10    9.5   278    15.6   785.3    0.00 
 328   15:30   0.09   62.6    11    9.4   283    15.1   785.3    0.00 
 328   15:40   0.04   61.0    11    9.4   274    16.6   785.3    0.00 
 328   15:50   0.02   59.5    13    7.4   282    11.6   785.3    0.00 
 328   16:00   0.01   58.3    12    7.2   269    16.0   785.3    0.00 
 328   16:10   0.01   57.8    14    8.8   281    15.9   785.2    0.00 
 328   16:20   0.01   56.7    14    5.7   271    12.5   785.3    0.00 
 328   16:30   0.01   55.3    14    5.1   266     7.6   785.2    0.00 
 328   16:40   0.00   55.9    15    8.6   277    14.0   785.1    0.00 
 328   16:50   0.00   56.2    18    8.5   273    15.1   785.3    0.00 
 328   17:00   0.00   55.4    18    6.9   276    11.5   785.4    0.00 
 328   17:10   0.00   54.8    19    5.9   295     9.3   785.5    0.00 
 328   17:20   0.00   53.3    21    5.0   297     8.8   785.6    0.00 
 328   17:30   0.00   53.7    19    6.1   284    10.2   785.6    0.00 

Return to SNARL Reserve graphs page.


Western Regional Climate Center,wrcc@dri.edu